Orbital elements of FENGYUN 1C DEB
| Launched | 9 May 1999 |
| Flight ended | – |
| Launch site | Taiyuan Space Center, PRC |
| Owner | People's Republic of China |
| NORAD ID | 29798 |
| Date fetched |
Epoch osculation |
Inc. [°] |
Ecc. | RA asc node [hr] |
Arg Peri. [°] |
Mean anom [°] |
Mean motion [rev/day] |
Abs. mag |
| Date fetched |
Epoch osculation |
Inc. [°] |
Ecc. | RA asc node [hr] |
Arg Peri. [°] |
Mean anom [°] |
Mean motion [rev/day] |
Abs. mag |
| 2026 May 08 17:57 | 2026 May 04 18:39:04 | 99.2821 | 0.01067 | 13.0585 | 241.8954 | 234.5873 | 14.00146 | – |
| 2026 May 07 17:58 | 2026 May 04 18:39:04 | 99.2821 | 0.01067 | 13.0585 | 241.8954 | 234.5873 | 14.00146 | – |
| 2026 May 06 17:57 | 2026 May 04 18:39:04 | 99.2821 | 0.01067 | 13.0585 | 241.8954 | 234.5873 | 14.00146 | – |
| 2026 May 05 17:57 | 2026 May 04 18:39:04 | 99.2821 | 0.01067 | 13.0585 | 241.8954 | 234.5873 | 14.00146 | – |
| 2026 May 04 17:57 | 2026 Apr 30 15:25:10 | 99.2820 | 0.01065 | 12.7787 | 253.3002 | 234.5873 | 14.00146 | – |
| 2026 May 03 17:57 | 2026 Apr 30 15:25:10 | 99.2820 | 0.01065 | 12.7787 | 253.3002 | 234.5873 | 14.00146 | – |
| 2026 May 02 17:57 | 2026 Apr 30 15:25:10 | 99.2820 | 0.01065 | 12.7787 | 253.3002 | 234.5873 | 14.00146 | – |
| 2026 May 01 17:56 | 2026 Apr 30 15:25:10 | 99.2820 | 0.01065 | 12.7787 | 253.3002 | 234.5873 | 14.00146 | – |
| 2026 Apr 30 17:56 | 2026 Apr 30 15:25:10 | 99.2820 | 0.01065 | 12.7787 | 253.3002 | 234.5873 | 14.00146 | – |
| 2026 Apr 29 17:57 | 2026 Apr 24 04:33:24 | 99.2822 | 0.01062 | 12.3421 | 271.1279 | 234.5873 | 14.00146 | – |
| 2026 Apr 28 17:56 | 2026 Apr 24 04:33:24 | 99.2822 | 0.01062 | 12.3421 | 271.1279 | 234.5873 | 14.00146 | – |
| 2026 Apr 27 17:58 | 2026 Apr 24 04:33:24 | 99.2822 | 0.01062 | 12.3421 | 271.1279 | 234.5873 | 14.00146 | – |
| 2026 Apr 26 17:58 | 2026 Apr 24 04:33:24 | 99.2822 | 0.01062 | 12.3421 | 271.1279 | 234.5873 | 14.00146 | – |
| 2026 Apr 25 17:58 | 2026 Apr 24 04:33:24 | 99.2822 | 0.01062 | 12.3421 | 271.1279 | 234.5873 | 14.00146 | – |
| 2026 Apr 24 17:59 | 2026 Apr 24 04:33:24 | 99.2822 | 0.01062 | 12.3421 | 271.1279 | 234.5873 | 14.00146 | – |
| 2026 Apr 23 17:57 | 2026 Apr 19 04:19:56 | 99.2823 | 0.01060 | 12.0032 | 285.0166 | 234.5873 | 14.00146 | – |
| 2026 Apr 22 17:57 | 2026 Apr 19 04:19:56 | 99.2823 | 0.01060 | 12.0032 | 285.0166 | 234.5873 | 14.00146 | – |
| 2026 Apr 21 17:57 | 2026 Apr 19 04:19:56 | 99.2823 | 0.01060 | 12.0032 | 285.0166 | 234.5873 | 14.00146 | – |
| 2026 Apr 20 17:57 | 2026 Apr 19 04:19:56 | 99.2823 | 0.01060 | 12.0032 | 285.0166 | 234.5873 | 14.00146 | – |
| 2026 Apr 19 17:58 | 2026 Apr 19 04:19:56 | 99.2823 | 0.01060 | 12.0032 | 285.0166 | 234.5873 | 14.00146 | – |
| 2026 Apr 18 17:56 | 2026 Apr 12 23:51:27 | 99.2829 | 0.01058 | 11.5846 | 302.2158 | 234.5873 | 14.00146 | – |
| 2026 Apr 16 17:57 | 2026 Apr 12 23:51:27 | 99.2829 | 0.01058 | 11.5846 | 302.2158 | 234.5873 | 14.00146 | – |
| 2026 Apr 14 17:57 | 2026 Apr 12 23:51:27 | 99.2829 | 0.01058 | 11.5846 | 302.2158 | 234.5873 | 14.00146 | – |
| 2026 Apr 13 17:57 | 2026 Apr 12 23:51:27 | 99.2829 | 0.01058 | 11.5846 | 302.2158 | 234.5873 | 14.00146 | – |
| 2026 Apr 12 17:57 | 2026 Apr 08 15:08:56 | 99.2832 | 0.01058 | 11.2894 | 314.3505 | 234.5873 | 14.00146 | – |
| 2026 Apr 11 17:57 | 2026 Apr 08 15:08:56 | 99.2832 | 0.01058 | 11.2894 | 314.3505 | 234.5873 | 14.00146 | – |